createdAt,value
2022-08-26T00:04:18.438Z,19.90
2022-08-26T00:09:47.283Z,19.80
2022-08-26T00:15:19.116Z,19.70
2022-08-26T00:20:48.200Z,19.70
2022-08-26T00:26:16.172Z,19.60
2022-08-26T00:31:45.097Z,19.50
2022-08-26T00:37:16.252Z,19.50
2022-08-26T00:42:45.879Z,19.50
2022-08-26T00:48:18.607Z,19.40
2022-08-26T00:54:00.229Z,19.30
2022-08-26T00:59:32.932Z,19.30
2022-08-26T01:05:03.550Z,19.20
2022-08-26T01:10:32.234Z,19.20
2022-08-26T01:16:04.673Z,19.20
2022-08-26T01:21:56.891Z,19.10
2022-08-26T01:27:27.389Z,19.10
2022-08-26T01:33:04.105Z,19.10
2022-08-26T01:38:32.458Z,19.00
2022-08-26T01:44:02.305Z,19.00
2022-08-26T01:49:31.989Z,18.90
2022-08-26T01:55:02.945Z,18.90
2022-08-26T02:00:30.940Z,18.90
2022-08-26T02:06:05.683Z,18.80
2022-08-26T02:11:37.303Z,18.80
2022-08-26T02:17:07.237Z,18.80
2022-08-26T02:22:35.709Z,18.80
2022-08-26T02:28:04.033Z,18.80
2022-08-26T02:33:32.522Z,18.70
2022-08-26T02:39:00.437Z,18.70
2022-08-26T02:44:28.522Z,18.70
2022-08-26T02:49:57.429Z,18.60
2022-08-26T02:55:25.382Z,18.60
2022-08-26T03:00:54.037Z,18.60
2022-08-26T03:06:23.302Z,18.50
2022-08-26T03:11:52.332Z,18.50
2022-08-26T03:17:21.246Z,18.40
2022-08-26T03:22:51.529Z,18.40
2022-08-26T03:28:19.646Z,18.30
2022-08-26T03:33:48.155Z,18.20
2022-08-26T03:39:17.401Z,18.20
2022-08-26T03:44:45.493Z,18.10
2022-08-26T03:50:22.543Z,18.10
2022-08-26T03:55:51.941Z,18.00
2022-08-26T04:01:20.796Z,18.00
2022-08-26T04:06:49.391Z,18.00
2022-08-26T04:12:18.049Z,17.90
2022-08-26T04:17:46.196Z,17.90
2022-08-26T04:23:16.770Z,17.90
2022-08-26T04:28:48.627Z,17.80
2022-08-26T04:34:17.957Z,17.80
2022-08-26T04:39:45.848Z,17.80
2022-08-26T04:45:14.329Z,17.80
2022-08-26T04:50:42.989Z,17.80
2022-08-26T04:56:11.207Z,17.90
2022-08-26T05:01:48.009Z,17.90
2022-08-26T05:07:17.711Z,17.90
2022-08-26T05:12:45.687Z,18.00
2022-08-26T05:18:16.510Z,18.00
2022-08-26T05:23:44.347Z,18.10
2022-08-26T05:29:13.161Z,18.20
2022-08-26T05:34:41.197Z,18.30
2022-08-26T05:40:11.693Z,18.30
2022-08-26T05:45:47.450Z,18.40
2022-08-26T05:51:16.821Z,18.50
2022-08-26T05:56:44.690Z,18.80
2022-08-26T06:02:14.165Z,19.00
2022-08-26T06:08:00.879Z,19.40
2022-08-26T06:13:30.221Z,19.70
2022-08-26T06:19:00.040Z,20.00
2022-08-26T06:24:47.184Z,20.20
2022-08-26T06:30:15.068Z,20.60
2022-08-26T06:35:43.676Z,21.00
2022-08-26T06:41:11.542Z,21.40
2022-08-26T06:46:40.709Z,21.60
2022-08-26T06:52:08.573Z,21.90
2022-08-26T06:57:37.679Z,22.30
2022-08-26T07:03:08.411Z,22.60
2022-08-26T07:08:37.489Z,22.90
2022-08-26T07:14:06.621Z,23.00
2022-08-26T07:19:34.499Z,23.10
2022-08-26T07:25:03.129Z,23.30
2022-08-26T07:30:31.443Z,23.40
2022-08-26T07:35:59.615Z,23.50
2022-08-26T07:46:58.843Z,23.40
2022-08-26T07:52:30.064Z,23.50
2022-08-26T07:57:58.032Z,23.50
2022-08-26T08:03:26.771Z,23.40
2022-08-26T08:08:55.269Z,23.50
2022-08-26T08:14:23.817Z,23.50
2022-08-26T08:19:51.625Z,23.50
2022-08-26T08:25:21.384Z,23.50
2022-08-26T08:30:49.335Z,23.50
2022-08-26T08:36:20.450Z,23.50
2022-08-26T08:42:16.995Z,23.50
2022-08-26T08:47:58.246Z,23.60
2022-08-26T08:53:38.264Z,23.50
2022-08-26T08:59:20.839Z,23.50
2022-08-26T09:05:24.095Z,23.50
2022-08-26T09:10:58.027Z,23.60
2022-08-26T09:16:58.320Z,23.60
2022-08-26T09:22:37.047Z,23.70
2022-08-26T09:28:16.992Z,23.80
2022-08-26T09:33:46.252Z,23.80
2022-08-26T09:39:39.176Z,23.90
2022-08-26T09:45:11.936Z,24.00
2022-08-26T09:51:00.156Z,24.10
2022-08-26T09:56:36.524Z,24.10
2022-08-26T10:02:21.330Z,24.40
2022-08-26T10:07:51.323Z,24.60
2022-08-26T10:13:24.629Z,24.70
2022-08-26T10:19:01.095Z,24.90
2022-08-26T10:24:36.713Z,25.20
2022-08-26T10:30:15.345Z,25.60
2022-08-26T10:35:57.736Z,26.20
2022-08-26T10:41:32.541Z,26.60
2022-08-26T10:47:15.064Z,27.00
2022-08-26T10:53:12.087Z,27.40
2022-08-26T10:59:04.655Z,27.60
2022-08-26T11:04:55.173Z,27.90
2022-08-26T11:10:23.003Z,28.20
2022-08-26T11:15:54.742Z,28.00
2022-08-26T11:22:02.785Z,27.70
2022-08-26T11:27:37.140Z,27.50
2022-08-26T11:33:07.122Z,27.60
2022-08-26T11:38:35.886Z,27.50
2022-08-26T11:44:07.168Z,27.60
2022-08-26T11:49:35.297Z,27.70
2022-08-26T11:55:15.178Z,28.00
2022-08-26T12:01:00.751Z,27.50
2022-08-26T12:06:45.032Z,27.40
2022-08-26T12:12:26.703Z,27.80
2022-08-26T12:17:54.766Z,27.80
2022-08-26T12:23:37.409Z,27.70
2022-08-26T12:29:26.876Z,27.70
2022-08-26T12:34:55.351Z,27.80
2022-08-26T12:40:31.389Z,27.80
2022-08-26T12:46:00.649Z,27.90
2022-08-26T12:51:35.312Z,28.00
2022-08-26T12:57:11.694Z,28.00
2022-08-26T13:02:40.067Z,28.20
2022-08-26T13:08:12.641Z,28.60
2022-08-26T13:13:40.524Z,28.60
2022-08-26T13:19:12.290Z,28.70
2022-08-26T13:24:44.485Z,29.10
2022-08-26T13:30:13.280Z,29.30
2022-08-26T13:35:41.703Z,29.50
2022-08-26T13:41:09.639Z,29.70
2022-08-26T13:46:40.740Z,29.70
2022-08-26T13:52:08.625Z,29.40
2022-08-26T13:57:36.547Z,29.10
2022-08-26T14:03:07.346Z,28.80
2022-08-26T14:08:40.389Z,28.50
2022-08-26T14:14:08.437Z,30.10
2022-08-26T14:19:36.719Z,30.20
2022-08-26T14:31:07.325Z,31.30
2022-08-26T14:36:39.072Z,31.40
2022-08-26T14:42:09.664Z,31.10
2022-08-26T14:47:47.807Z,32.90
2022-08-26T14:53:34.171Z,32.80
2022-08-26T14:59:02.225Z,32.90
2022-08-26T15:04:30.405Z,31.90
2022-08-26T15:09:58.655Z,30.90
2022-08-26T15:15:29.545Z,30.10
2022-08-26T15:20:57.601Z,29.50
2022-08-26T15:26:26.473Z,29.00
2022-08-26T15:31:57.323Z,28.60
2022-08-26T15:37:25.574Z,28.40
2022-08-26T15:43:01.269Z,27.90
2022-08-26T15:48:40.646Z,27.50
2022-08-26T15:54:10.286Z,27.20
2022-08-26T15:59:38.510Z,27.10
2022-08-26T16:05:07.430Z,26.90
2022-08-26T16:10:50.275Z,26.70
2022-08-26T16:16:19.523Z,26.60
2022-08-26T16:21:48.313Z,26.50
2022-08-26T16:27:16.378Z,26.60
2022-08-26T16:32:44.203Z,26.50
2022-08-26T16:38:12.139Z,26.40
2022-08-26T16:43:40.231Z,26.30
2022-08-26T16:49:08.284Z,26.10
2022-08-26T16:54:39.719Z,26.00
2022-08-26T17:00:21.389Z,25.90
2022-08-26T17:05:49.242Z,25.90
2022-08-26T17:11:19.100Z,25.80
2022-08-26T17:16:51.257Z,25.70
2022-08-26T17:22:19.715Z,25.70
2022-08-26T17:27:48.642Z,25.60
2022-08-26T17:33:17.222Z,25.50
2022-08-26T17:38:50.204Z,25.40
2022-08-26T17:44:20.777Z,25.30
2022-08-26T17:49:48.711Z,25.20
2022-08-26T17:55:18.296Z,25.10
2022-08-26T18:00:51.020Z,24.90
2022-08-26T18:06:20.774Z,24.80
2022-08-26T18:11:48.673Z,24.70
2022-08-26T18:17:19.330Z,24.60
2022-08-26T18:22:48.921Z,24.50
2022-08-26T18:28:17.048Z,24.40
2022-08-26T18:33:45.794Z,24.30
2022-08-26T18:39:15.607Z,24.20
2022-08-26T18:44:43.895Z,24.20
2022-08-26T18:50:12.076Z,24.10
2022-08-26T18:55:40.082Z,24.00
2022-08-26T19:01:08.341Z,23.90
2022-08-26T19:06:41.627Z,23.80
2022-08-26T19:12:10.418Z,23.70
2022-08-26T19:17:38.922Z,23.40
2022-08-26T19:23:28.237Z,23.00
2022-08-26T19:28:58.700Z,22.20
2022-08-26T19:34:26.911Z,21.40
2022-08-26T19:39:55.005Z,20.30
2022-08-26T19:45:25.123Z,19.50
2022-08-26T19:50:53.700Z,18.90
2022-08-26T19:56:22.304Z,18.90
2022-08-26T20:02:00.782Z,18.70
2022-08-26T20:07:30.767Z,18.50
2022-08-26T20:12:59.316Z,18.30
2022-08-26T20:18:46.035Z,18.20
2022-08-26T20:24:21.328Z,18.10
2022-08-26T20:29:49.318Z,17.90
2022-08-26T20:35:19.479Z,17.90
2022-08-26T20:40:47.647Z,17.90
2022-08-26T20:46:18.016Z,17.80
2022-08-26T20:51:51.467Z,17.80
2022-08-26T20:57:19.454Z,17.70
2022-08-26T21:02:52.969Z,17.70
2022-08-26T21:08:21.094Z,17.70
2022-08-26T21:14:04.466Z,17.70
2022-08-26T21:19:35.229Z,17.60
2022-08-26T21:25:04.278Z,17.60
2022-08-26T21:30:34.277Z,17.50
2022-08-26T21:36:03.376Z,17.50
2022-08-26T21:41:31.374Z,17.50
2022-08-26T21:46:59.261Z,17.50
2022-08-26T21:52:27.478Z,17.40
2022-08-26T21:57:55.504Z,17.40
2022-08-26T22:03:23.606Z,17.30
2022-08-26T22:08:52.543Z,17.30
2022-08-26T22:14:30.192Z,17.30
2022-08-26T22:19:59.388Z,17.30
2022-08-26T22:25:34.175Z,17.40
2022-08-26T22:31:06.127Z,17.40
2022-08-26T22:36:35.347Z,17.50
2022-08-26T22:42:08.154Z,17.50
2022-08-26T22:47:46.969Z,17.60
2022-08-26T23:05:00.609Z,17.70
2022-08-26T23:10:29.247Z,17.70
2022-08-26T23:16:11.377Z,17.70
2022-08-26T23:21:48.377Z,17.80
2022-08-26T23:27:20.054Z,17.80
2022-08-26T23:32:50.398Z,17.90
2022-08-26T23:38:29.557Z,17.90
2022-08-26T23:44:03.574Z,17.90
2022-08-26T23:49:34.755Z,18.00
2022-08-26T23:55:10.152Z,18.00
